Погода Гоятубана неделю

Гояс, Бразилия

14 - 20 июля
  • 14июля
    Сегодня
    +15°
    +29°
    Ясно и безоблачно
    ВремяПогодаТемператураВлажностьДавлениеВетер, м/сВероятность осадков
    00:00Ясно и безоблачно+20°C44 %707 мм3.6 м/с5 %
    03:00Ясно и безоблачно+16°C48 %706 мм2.1 м/с5 %
    06:00Ясно и безоблачно+15°C54 %706 мм1.8 м/с5 %
    09:00Ясно и безоблачно+20°C43 %708 мм3.0 м/с5 %
    12:00Ясно и безоблачно+25°C31 %708 мм3.6 м/с5 %
    15:00Ясно и безоблачно+28°C25 %706 мм1.4 м/с5 %
    18:00Ясно и безоблачно+25°C31 %706 мм1.7 м/с5 %
    21:00Ясно и безоблачно+19°C43 %706 мм1.9 м/с5 %
  • 15июля
    Понедельник
    +15°
    +29°
    Ясно и безоблачно
    ВремяПогодаТемператураВлажностьДавлениеВетер, м/сВероятность осадков
    00:00Ясно и безоблачно+19°C46 %707 мм2.5 м/с5 %
    03:00Ясно и безоблачно+17°C54 %706 мм2.2 м/с5 %
    06:00Ясно и безоблачно+17°C61 %706 мм1.7 м/с5 %
    09:00Ясно и безоблачно+20°C46 %709 мм0.2 м/с5 %
    12:00Ясно и безоблачно+26°C30 %709 мм1.0 м/с5 %
    15:00Ясно и безоблачно+28°C24 %707 мм1.5 м/с5 %
    18:00Ясно и безоблачно+25°C32 %707 мм1.9 м/с5 %
    21:00Практически безоблачно+21°C45 %708 мм2.0 м/с5 %
  • 16июля
    Вторник
    +16°
    +29°
    Небольшая облачность
    ВремяПогодаТемператураВлажностьДавлениеВетер, м/сВероятность осадков
    00:00Облачно с прояснениями+18°C47 %707 мм2.1 м/с5 %
    03:00Облачно с прояснениями+16°C53 %706 мм1.3 м/с5 %
    06:00Облачно с прояснениями+16°C61 %706 мм1.6 м/с5 %
    09:00Небольшая облачность+21°C44 %709 мм1.2 м/с5 %
    12:00Небольшая облачность+26°C31 %709 мм3.7 м/с5 %
    15:00Небольшая облачность+29°C27 %707 мм2.2 м/с5 %
    18:00Ясно и безоблачно+25°C38 %707 мм2.1 м/с5 %
    21:00Ясно и безоблачно+22°C41 %708 мм2.2 м/с5 %
  • 17июля
    Среда
    +16°
    +29°
    Ясно и безоблачно
    ВремяПогодаТемператураВлажностьДавлениеВетер, м/сВероятность осадков
    00:00Ясно и безоблачно+20°C42 %708 мм3.2 м/с5 %
    03:00Ясно и безоблачно+18°C54 %707 мм1.9 м/с5 %
    06:00Ясно и безоблачно+17°C57 %707 мм2.0 м/с5 %
    09:00Ясно и безоблачно+22°C42 %709 мм2.4 м/с5 %
    12:00Ясно и безоблачно+27°C28 %709 мм2.6 м/с5 %
    15:00Ясно и безоблачно+29°C25 %707 мм1.9 м/с5 %
    18:00Ясно и безоблачно+26°C31 %707 мм2.5 м/с5 %
    21:00Ясно и безоблачно+21°C38 %707 мм2.0 м/с5 %
  • 18июля
    Четверг
    +18°
    +30°
    Ясно и безоблачно
    ВремяПогодаТемператураВлажностьДавлениеВетер, м/сВероятность осадков
    00:00Ясно и безоблачно+19°C43 %706 мм2.1 м/с5 %
    03:00Ясно и безоблачно+18°C52 %705 мм1.7 м/с5 %
    06:00Ясно и безоблачно+17°C60 %705 мм1.9 м/с5 %
    09:00Ясно и безоблачно+23°C43 %708 мм1.8 м/с5 %
    12:00Ясно и безоблачно+27°C28 %708 мм3.5 м/с5 %
    15:00Ясно и безоблачно+29°C25 %706 мм1.9 м/с5 %
    18:00Ясно и безоблачно+26°C35 %706 мм2.4 м/с5 %
    21:00Ясно и безоблачно+23°C40 %707 мм1.9 м/с5 %
Мы используем cookies
Соглашаюсь